createdAt,value
2022-09-29T00:00:00.000Z,0.0
2022-09-29T00:02:00.000Z,0.0
2022-09-29T00:04:00.000Z,0.0
2022-09-29T00:06:00.000Z,0.0
2022-09-29T00:08:00.000Z,0.0
2022-09-29T00:10:00.000Z,0.0
2022-09-29T00:12:00.000Z,0.0
2022-09-29T00:14:00.000Z,0.0
2022-09-29T00:16:00.000Z,0.0
2022-09-29T00:18:00.000Z,0.0
2022-09-29T00:20:00.000Z,0.0
2022-09-29T00:22:00.000Z,0.0
2022-09-29T00:24:00.000Z,0.0
2022-09-29T00:26:00.000Z,0.0
2022-09-29T00:28:00.000Z,0.0
2022-09-29T00:30:00.000Z,0.0
2022-09-29T00:32:00.000Z,0.0
2022-09-29T00:34:00.000Z,0.0
2022-09-29T00:36:00.000Z,0.0
2022-09-29T00:38:00.000Z,0.0
2022-09-29T00:40:00.000Z,0.0
2022-09-29T00:42:00.000Z,0.0
2022-09-29T00:44:00.000Z,0.0
2022-09-29T00:46:00.000Z,0.0
2022-09-29T00:48:00.000Z,0.0
2022-09-29T00:50:00.000Z,0.0
2022-09-29T00:52:00.000Z,0.0
2022-09-29T00:54:00.000Z,0.0
2022-09-29T00:56:00.000Z,0.0
2022-09-29T00:58:00.000Z,0.0
2022-09-29T01:00:00.000Z,0.0
2022-09-29T01:02:00.000Z,0.0
2022-09-29T01:04:00.000Z,0.0
2022-09-29T01:06:00.000Z,0.0
2022-09-29T01:08:00.000Z,0.0
2022-09-29T01:10:00.000Z,0.0
2022-09-29T01:12:00.000Z,0.0
2022-09-29T01:14:00.000Z,0.0
2022-09-29T01:16:00.000Z,0.0
2022-09-29T01:18:00.000Z,0.0
2022-09-29T01:20:00.000Z,0.0
2022-09-29T01:22:00.000Z,0.0
2022-09-29T01:24:00.000Z,0.0
2022-09-29T01:26:00.000Z,0.0
2022-09-29T01:28:00.000Z,0.0
2022-09-29T01:30:00.000Z,0.0
2022-09-29T01:32:00.000Z,0.0
2022-09-29T01:34:00.000Z,0.0
2022-09-29T01:36:00.000Z,0.0
2022-09-29T01:38:00.000Z,0.0
2022-09-29T01:40:00.000Z,0.0
2022-09-29T01:42:00.000Z,0.0
2022-09-29T01:44:00.000Z,0.0
2022-09-29T01:46:00.000Z,0.0
2022-09-29T01:48:00.000Z,0.0
2022-09-29T01:50:00.000Z,0.0
2022-09-29T01:52:00.000Z,0.0
2022-09-29T01:54:00.000Z,0.0
2022-09-29T01:56:00.000Z,0.0
2022-09-29T01:58:00.000Z,0.0
2022-09-29T02:00:00.000Z,0.0
2022-09-29T02:02:00.000Z,0.0
2022-09-29T02:04:00.000Z,0.0
2022-09-29T02:06:00.000Z,0.0
2022-09-29T02:08:00.000Z,0.0
2022-09-29T02:10:00.000Z,0.0
2022-09-29T02:12:00.000Z,0.0
2022-09-29T02:14:00.000Z,0.0
2022-09-29T02:16:00.000Z,0.0
2022-09-29T02:18:00.000Z,0.0
2022-09-29T02:20:00.000Z,0.0
2022-09-29T02:22:00.000Z,0.0
2022-09-29T02:24:00.000Z,0.0
2022-09-29T02:26:00.000Z,0.0
2022-09-29T02:28:00.000Z,0.0
2022-09-29T02:30:00.000Z,0.0
2022-09-29T02:32:00.000Z,0.0
2022-09-29T02:34:00.000Z,0.0
2022-09-29T02:36:00.000Z,0.0
2022-09-29T02:38:00.000Z,0.0
2022-09-29T02:40:00.000Z,0.0
2022-09-29T02:42:00.000Z,0.0
2022-09-29T02:44:00.000Z,0.0
2022-09-29T02:46:00.000Z,0.0
2022-09-29T02:48:00.000Z,0.0
2022-09-29T02:50:00.000Z,0.0
2022-09-29T02:52:00.000Z,0.0
2022-09-29T02:54:00.000Z,0.0
2022-09-29T02:56:00.000Z,0.0
2022-09-29T02:58:00.000Z,0.0
2022-09-29T03:00:00.000Z,0.0
2022-09-29T03:02:00.000Z,0.0
2022-09-29T03:04:00.000Z,0.0
2022-09-29T03:06:00.000Z,0.0
2022-09-29T03:08:00.000Z,0.0
2022-09-29T03:10:00.000Z,0.0
2022-09-29T03:12:00.000Z,0.0
2022-09-29T03:14:00.000Z,0.0
2022-09-29T03:16:00.000Z,0.0
2022-09-29T03:18:00.000Z,0.0
2022-09-29T03:20:00.000Z,0.0
2022-09-29T03:22:00.000Z,0.0
2022-09-29T03:24:00.000Z,0.0
2022-09-29T03:26:00.000Z,0.0
2022-09-29T03:28:00.000Z,0.0
2022-09-29T03:30:00.000Z,0.0
2022-09-29T03:32:00.000Z,0.0
2022-09-29T03:34:00.000Z,0.0
2022-09-29T03:36:00.000Z,0.0
2022-09-29T03:38:00.000Z,0.0
2022-09-29T03:40:00.000Z,0.0
2022-09-29T03:42:00.000Z,0.0
2022-09-29T03:44:00.000Z,0.0
2022-09-29T03:46:00.000Z,0.0
2022-09-29T03:48:00.000Z,0.0
2022-09-29T03:50:00.000Z,0.0
2022-09-29T03:52:00.000Z,0.0
2022-09-29T03:54:00.000Z,0.0
2022-09-29T03:56:00.000Z,0.0
2022-09-29T03:58:00.000Z,0.0
2022-09-29T04:00:00.000Z,0.0
2022-09-29T04:02:00.000Z,0.0
2022-09-29T04:04:00.000Z,0.0
2022-09-29T04:06:00.000Z,0.0
2022-09-29T04:08:00.000Z,0.0
2022-09-29T04:10:00.000Z,0.0
2022-09-29T04:12:00.000Z,0.0
2022-09-29T04:14:00.000Z,0.0
2022-09-29T04:16:00.000Z,0.0
2022-09-29T04:18:00.000Z,0.0
2022-09-29T04:20:00.000Z,0.0
2022-09-29T04:22:00.000Z,0.0
2022-09-29T04:24:00.000Z,0.0
2022-09-29T04:26:00.000Z,0.0
2022-09-29T04:28:00.000Z,0.0
2022-09-29T04:30:00.000Z,0.0
2022-09-29T04:32:00.000Z,0.0
2022-09-29T04:34:00.000Z,0.0
2022-09-29T04:36:00.000Z,0.0
2022-09-29T04:38:00.000Z,0.0
2022-09-29T04:40:00.000Z,0.0
2022-09-29T04:42:00.000Z,0.0
2022-09-29T04:44:00.000Z,0.0
2022-09-29T04:46:00.000Z,0.0
2022-09-29T04:48:00.000Z,0.0
2022-09-29T04:50:00.000Z,0.0
2022-09-29T04:52:00.000Z,0.0
2022-09-29T04:54:00.000Z,0.0
2022-09-29T04:56:00.000Z,0.0
2022-09-29T04:58:00.000Z,0.0
2022-09-29T05:00:00.000Z,0.0
2022-09-29T05:02:00.000Z,0.71
2022-09-29T05:04:00.000Z,0.94
2022-09-29T05:06:00.000Z,1.18
2022-09-29T05:08:00.000Z,1.5
2022-09-29T05:10:00.000Z,1.89
2022-09-29T05:12:00.000Z,2.29
2022-09-29T05:14:00.000Z,2.68
2022-09-29T05:16:00.000Z,3.16
2022-09-29T05:18:00.000Z,3.79
2022-09-29T05:20:00.000Z,4.1
2022-09-29T05:22:00.000Z,4.81
2022-09-29T05:24:00.000Z,5.53
2022-09-29T05:26:00.000Z,6.47
2022-09-29T05:28:00.000Z,7.5
2022-09-29T05:30:00.000Z,8.76
2022-09-29T05:32:00.000Z,10.42
2022-09-29T05:34:00.000Z,12.0
2022-09-29T05:36:00.000Z,13.82
2022-09-29T05:38:00.000Z,15.72
2022-09-29T05:40:00.000Z,17.3
2022-09-29T05:42:00.000Z,19.43
2022-09-29T05:44:00.000Z,21.17
2022-09-29T05:46:00.000Z,23.22
2022-09-29T05:48:00.000Z,23.93
2022-09-29T05:50:00.000Z,25.2
2022-09-29T05:52:00.000Z,25.75
2022-09-29T05:54:00.000Z,23.38
2022-09-29T05:56:00.000Z,25.12
2022-09-29T05:58:00.000Z,28.91
2022-09-29T06:00:00.000Z,28.2
2022-09-29T06:02:00.000Z,26.78
2022-09-29T06:04:00.000Z,26.3
2022-09-29T06:06:00.000Z,25.04
2022-09-29T06:08:00.000Z,24.49
2022-09-29T06:10:00.000Z,24.25
2022-09-29T06:12:00.000Z,25.91
2022-09-29T06:14:00.000Z,26.93
2022-09-29T06:16:00.000Z,28.51
2022-09-29T06:18:00.000Z,30.02
2022-09-29T06:20:00.000Z,31.12
2022-09-29T06:22:00.000Z,32.86
2022-09-29T06:24:00.000Z,34.2
2022-09-29T06:26:00.000Z,36.18
2022-09-29T06:28:00.000Z,36.18
2022-09-29T06:30:00.000Z,38.47
2022-09-29T06:32:00.000Z,40.52
2022-09-29T06:34:00.000Z,42.18
2022-09-29T06:36:00.000Z,40.05
2022-09-29T06:38:00.000Z,42.34
2022-09-29T06:40:00.000Z,43.68
2022-09-29T06:42:00.000Z,46.29
2022-09-29T06:44:00.000Z,50.63
2022-09-29T06:46:00.000Z,54.03
2022-09-29T06:48:00.000Z,57.11
2022-09-29T06:50:00.000Z,55.85
2022-09-29T06:52:00.000Z,58.3
2022-09-29T06:54:00.000Z,67.94
2022-09-29T06:56:00.000Z,79.47
2022-09-29T06:58:00.000Z,95.43
2022-09-29T07:00:00.000Z,103.33
2022-09-29T07:02:00.000Z,94.16
2022-09-29T07:04:00.000Z,105.38
2022-09-29T07:06:00.000Z,104.99
2022-09-29T07:08:00.000Z,99.3
2022-09-29T07:10:00.000Z,90.77
2022-09-29T07:12:00.000Z,82.79
2022-09-29T07:14:00.000Z,77.02
2022-09-29T07:16:00.000Z,76.39
2022-09-29T07:18:00.000Z,75.84
2022-09-29T07:20:00.000Z,94.95
2022-09-29T07:22:00.000Z,80.02
2022-09-29T07:24:00.000Z,76.07
2022-09-29T07:26:00.000Z,87.05
2022-09-29T07:28:00.000Z,59.01
2022-09-29T07:30:00.000Z,50.63
2022-09-29T07:32:00.000Z,51.27
2022-09-29T07:34:00.000Z,53.4
2022-09-29T07:36:00.000Z,46.45
2022-09-29T07:38:00.000Z,58.38
2022-09-29T07:40:00.000Z,66.12
2022-09-29T07:42:00.000Z,72.36
2022-09-29T07:44:00.000Z,69.75
2022-09-29T07:46:00.000Z,77.73
2022-09-29T07:48:00.000Z,93.77
2022-09-29T07:50:00.000Z,98.98
2022-09-29T07:52:00.000Z,109.17
2022-09-29T07:54:00.000Z,135.09
2022-09-29T07:56:00.000Z,161.79
2022-09-29T07:58:00.000Z,156.73
2022-09-29T08:00:00.000Z,132.09
2022-09-29T08:02:00.000Z,98.04
2022-09-29T08:04:00.000Z,132.01
2022-09-29T08:06:00.000Z,135.01
2022-09-29T08:08:00.000Z,120.79
2022-09-29T08:10:00.000Z,124.34
2022-09-29T08:12:00.000Z,126.16
2022-09-29T08:14:00.000Z,149.39
2022-09-29T08:16:00.000Z,142.2
2022-09-29T08:18:00.000Z,146.31
2022-09-29T08:20:00.000Z,137.22
2022-09-29T08:22:00.000Z,136.9
2022-09-29T08:24:00.000Z,130.66
2022-09-29T08:26:00.000Z,135.25
2022-09-29T08:28:00.000Z,158.16
2022-09-29T08:30:00.000Z,156.65
2022-09-29T08:32:00.000Z,159.66
2022-09-29T08:34:00.000Z,160.37
2022-09-29T08:36:00.000Z,138.41
2022-09-29T08:38:00.000Z,143.86
2022-09-29T08:40:00.000Z,137.3
2022-09-29T08:42:00.000Z,137.54
2022-09-29T08:44:00.000Z,131.45
2022-09-29T08:46:00.000Z,136.75
2022-09-29T08:48:00.000Z,144.8
2022-09-29T08:50:00.000Z,143.62
2022-09-29T08:52:00.000Z,140.38
2022-09-29T08:54:00.000Z,146.15
2022-09-29T08:56:00.000Z,156.02
2022-09-29T08:58:00.000Z,158.08
2022-09-29T09:00:00.000Z,143.15
2022-09-29T09:02:00.000Z,134.85
2022-09-29T09:04:00.000Z,137.69
2022-09-29T09:06:00.000Z,152.23
2022-09-29T09:08:00.000Z,153.42
2022-09-29T09:10:00.000Z,166.13
2022-09-29T09:12:00.000Z,133.82
2022-09-29T09:14:00.000Z,168.82
2022-09-29T09:16:00.000Z,163.84
2022-09-29T09:18:00.000Z,194.34
2022-09-29T09:20:00.000Z,185.73
2022-09-29T09:22:00.000Z,256.2
2022-09-29T09:24:00.000Z,149.07
2022-09-29T09:26:00.000Z,160.37
2022-09-29T09:28:00.000Z,163.76
2022-09-29T09:30:00.000Z,149.86
2022-09-29T09:32:00.000Z,182.17
2022-09-29T09:34:00.000Z,165.5
2022-09-29T09:36:00.000Z,186.68
2022-09-29T09:38:00.000Z,166.61
2022-09-29T09:40:00.000Z,169.06
2022-09-29T09:42:00.000Z,172.06
2022-09-29T09:44:00.000Z,170.8
2022-09-29T09:46:00.000Z,194.1
2022-09-29T09:48:00.000Z,170.64
2022-09-29T09:50:00.000Z,220.17
2022-09-29T09:52:00.000Z,224.99
2022-09-29T09:54:00.000Z,222.23
2022-09-29T09:56:00.000Z,210.93
2022-09-29T09:58:00.000Z,230.76
2022-09-29T10:00:00.000Z,186.28
2022-09-29T10:02:00.000Z,187.54
2022-09-29T10:04:00.000Z,169.37
2022-09-29T10:06:00.000Z,174.04
2022-09-29T10:08:00.000Z,197.66
2022-09-29T10:10:00.000Z,176.96
2022-09-29T10:12:00.000Z,157.44
2022-09-29T10:14:00.000Z,157.05
2022-09-29T10:16:00.000Z,153.02
2022-09-29T10:18:00.000Z,168.74
2022-09-29T10:20:00.000Z,169.69
2022-09-29T10:22:00.000Z,169.45
2022-09-29T10:24:00.000Z,168.03
2022-09-29T10:26:00.000Z,176.17
2022-09-29T10:28:00.000Z,234.95
2022-09-29T10:30:00.000Z,288.98
2022-09-29T10:32:00.000Z,195.92
2022-09-29T10:34:00.000Z,178.22
2022-09-29T10:36:00.000Z,224.2
2022-09-29T10:38:00.000Z,491.46
2022-09-29T10:40:00.000Z,261.49
2022-09-29T10:42:00.000Z,329.59
2022-09-29T10:44:00.000Z,229.42
2022-09-29T10:46:00.000Z,239.13
2022-09-29T10:48:00.000Z,245.22
2022-09-29T10:50:00.000Z,227.99
2022-09-29T10:52:00.000Z,313.24
2022-09-29T10:54:00.000Z,326.82
2022-09-29T10:56:00.000Z,263.07
2022-09-29T10:58:00.000Z,149.94
2022-09-29T11:00:00.000Z,135.88
2022-09-29T11:02:00.000Z,509.71
2022-09-29T11:04:00.000Z,173.64
2022-09-29T11:06:00.000Z,252.8
2022-09-29T11:08:00.000Z,291.04
2022-09-29T11:10:00.000Z,298.46
2022-09-29T11:12:00.000Z,266.86
2022-09-29T11:14:00.000Z,307.39
2022-09-29T11:16:00.000Z,383.86
2022-09-29T11:18:00.000Z,573.55
2022-09-29T11:20:00.000Z,208.87
2022-09-29T11:22:00.000Z,472.42
2022-09-29T11:24:00.000Z,560.59
2022-09-29T11:26:00.000Z,587.37
2022-09-29T11:28:00.000Z,625.61
2022-09-29T11:30:00.000Z,601.67
2022-09-29T11:32:00.000Z,613.13
2022-09-29T11:34:00.000Z,402.98
2022-09-29T11:36:00.000Z,180.51
2022-09-29T11:38:00.000Z,176.25
2022-09-29T11:40:00.000Z,189.28
2022-09-29T11:42:00.000Z,186.28
2022-09-29T11:44:00.000Z,165.9
2022-09-29T11:46:00.000Z,116.92
2022-09-29T11:48:00.000Z,121.97
2022-09-29T11:50:00.000Z,100.8
2022-09-29T11:52:00.000Z,100.01
2022-09-29T11:54:00.000Z,105.22
2022-09-29T11:56:00.000Z,501.65
2022-09-29T11:58:00.000Z,486.33
2022-09-29T12:00:00.000Z,489.09
2022-09-29T12:02:00.000Z,488.86
2022-09-29T12:04:00.000Z,476.22
2022-09-29T12:06:00.000Z,102.14
2022-09-29T12:08:00.000Z,508.53
2022-09-29T12:10:00.000Z,557.51
2022-09-29T12:12:00.000Z,554.82
2022-09-29T12:14:00.000Z,509.24
2022-09-29T12:16:00.000Z,514.77
2022-09-29T12:18:00.000Z,530.96
2022-09-29T12:20:00.000Z,465.63
2022-09-29T12:22:00.000Z,467.6
2022-09-29T12:24:00.000Z,459.15
2022-09-29T12:26:00.000Z,464.05
2022-09-29T12:28:00.000Z,395.95
2022-09-29T12:30:00.000Z,474.0
2022-09-29T12:32:00.000Z,150.49
2022-09-29T12:34:00.000Z,469.97
2022-09-29T12:36:00.000Z,367.9
2022-09-29T12:38:00.000Z,470.69
2022-09-29T12:40:00.000Z,470.92
2022-09-29T12:42:00.000Z,456.86
2022-09-29T12:44:00.000Z,152.94
2022-09-29T12:46:00.000Z,115.02
2022-09-29T12:48:00.000Z,95.82
2022-09-29T12:50:00.000Z,103.49
2022-09-29T12:52:00.000Z,361.11
2022-09-29T12:54:00.000Z,440.35
2022-09-29T12:56:00.000Z,432.13
2022-09-29T12:58:00.000Z,115.1
2022-09-29T13:00:00.000Z,95.9
2022-09-29T13:02:00.000Z,103.25
2022-09-29T13:04:00.000Z,122.53
2022-09-29T13:06:00.000Z,142.36
2022-09-29T13:08:00.000Z,152.86
2022-09-29T13:10:00.000Z,141.49
2022-09-29T13:12:00.000Z,154.6
2022-09-29T13:14:00.000Z,166.77
2022-09-29T13:16:00.000Z,189.91
2022-09-29T13:18:00.000Z,212.75
2022-09-29T13:20:00.000Z,500.63
2022-09-29T13:22:00.000Z,492.17
2022-09-29T13:24:00.000Z,227.12
2022-09-29T13:26:00.000Z,293.09
2022-09-29T13:28:00.000Z,161.39
2022-09-29T13:30:00.000Z,146.23
2022-09-29T13:32:00.000Z,147.73
2022-09-29T13:34:00.000Z,127.42
2022-09-29T13:36:00.000Z,124.34
2022-09-29T13:38:00.000Z,152.94
2022-09-29T13:40:00.000Z,162.66
2022-09-29T13:42:00.000Z,163.29
2022-09-29T13:44:00.000Z,195.21
2022-09-29T13:46:00.000Z,370.43
2022-09-29T13:48:00.000Z,362.37
2022-09-29T13:50:00.000Z,354.32
2022-09-29T13:52:00.000Z,164.08
2022-09-29T13:54:00.000Z,245.61
2022-09-29T13:56:00.000Z,173.32
2022-09-29T13:58:00.000Z,155.15
2022-09-29T14:00:00.000Z,200.97
2022-09-29T14:02:00.000Z,119.45
2022-09-29T14:04:00.000Z,140.78
2022-09-29T14:06:00.000Z,185.25
2022-09-29T14:10:00.000Z,150.81
2022-09-29T14:12:00.000Z,152.86
2022-09-29T14:14:00.000Z,143.86
2022-09-29T14:16:00.000Z,135.96
2022-09-29T14:18:00.000Z,178.78
2022-09-29T14:20:00.000Z,128.77
2022-09-29T14:22:00.000Z,116.21
2022-09-29T14:24:00.000Z,133.59
2022-09-29T14:26:00.000Z,262.44
2022-09-29T14:28:00.000Z,133.59
2022-09-29T14:30:00.000Z,126.56
2022-09-29T14:32:00.000Z,114.71
2022-09-29T14:34:00.000Z,98.67
2022-09-29T14:36:00.000Z,94.88
2022-09-29T14:38:00.000Z,96.06
2022-09-29T14:40:00.000Z,87.61
2022-09-29T14:42:00.000Z,75.84
2022-09-29T14:44:00.000Z,64.62
2022-09-29T14:46:00.000Z,63.43
2022-09-29T14:48:00.000Z,65.17
2022-09-29T14:50:00.000Z,65.65
2022-09-29T14:52:00.000Z,65.57
2022-09-29T14:54:00.000Z,66.28
2022-09-29T14:56:00.000Z,76.55
2022-09-29T14:58:00.000Z,85.63
2022-09-29T15:00:00.000Z,108.31
2022-09-29T15:02:00.000Z,120.16
2022-09-29T15:04:00.000Z,120.0
2022-09-29T15:06:00.000Z,122.53
2022-09-29T15:08:00.000Z,121.89
2022-09-29T15:10:00.000Z,119.84
2022-09-29T15:12:00.000Z,123.47
2022-09-29T15:14:00.000Z,139.67
2022-09-29T15:16:00.000Z,147.49
2022-09-29T15:18:00.000Z,144.73
2022-09-29T15:20:00.000Z,144.88
2022-09-29T15:22:00.000Z,135.96
2022-09-29T15:24:00.000Z,110.91
2022-09-29T15:28:00.000Z,82.95
2022-09-29T15:30:00.000Z,71.18
2022-09-29T15:32:00.000Z,69.2
2022-09-29T15:34:00.000Z,67.07
2022-09-29T15:36:00.000Z,65.57
2022-09-29T15:38:00.000Z,59.8
2022-09-29T15:40:00.000Z,56.24
2022-09-29T15:42:00.000Z,54.11
2022-09-29T15:44:00.000Z,53.4
2022-09-29T15:46:00.000Z,52.06
2022-09-29T15:48:00.000Z,50.95
2022-09-29T15:50:00.000Z,49.77
2022-09-29T15:52:00.000Z,48.5
2022-09-29T15:54:00.000Z,47.32
2022-09-29T15:56:00.000Z,45.82
2022-09-29T15:58:00.000Z,43.84
2022-09-29T16:00:00.000Z,40.21
2022-09-29T16:02:00.000Z,35.15
2022-09-29T16:04:00.000Z,29.94
2022-09-29T16:06:00.000Z,25.67
2022-09-29T16:08:00.000Z,21.72
2022-09-29T16:10:00.000Z,19.27
2022-09-29T16:12:00.000Z,14.14
2022-09-29T16:14:00.000Z,9.71
2022-09-29T16:16:00.000Z,6.47
2022-09-29T16:18:00.000Z,4.34
2022-09-29T16:20:00.000Z,3.23
2022-09-29T16:22:00.000Z,3.39
2022-09-29T16:24:00.000Z,4.74
2022-09-29T16:26:00.000Z,5.37
2022-09-29T16:28:00.000Z,5.68
2022-09-29T16:30:00.000Z,6.16
2022-09-29T16:32:00.000Z,6.24
2022-09-29T16:34:00.000Z,5.84
2022-09-29T16:36:00.000Z,4.66
2022-09-29T16:38:00.000Z,3.23
2022-09-29T16:40:00.000Z,2.13
2022-09-29T16:42:00.000Z,2.21
2022-09-29T16:44:00.000Z,2.76
2022-09-29T16:46:00.000Z,3.23
2022-09-29T16:48:00.000Z,3.55
2022-09-29T16:50:00.000Z,3.95
2022-09-29T16:52:00.000Z,4.5
2022-09-29T16:54:00.000Z,4.58
2022-09-29T16:56:00.000Z,4.42
2022-09-29T16:58:00.000Z,4.02
2022-09-29T17:00:00.000Z,3.71
2022-09-29T17:02:00.000Z,3.16
2022-09-29T17:04:00.000Z,2.68
2022-09-29T17:06:00.000Z,2.21
2022-09-29T17:08:00.000Z,1.81
2022-09-29T17:10:00.000Z,1.42
2022-09-29T17:12:00.000Z,1.1
2022-09-29T17:14:00.000Z,0.79
2022-09-29T17:16:00.000Z,0.47
2022-09-29T17:18:00.000Z,0.31
2022-09-29T17:20:00.000Z,0.0
2022-09-29T17:22:00.000Z,0.0
2022-09-29T17:24:00.000Z,0.0
2022-09-29T17:26:00.000Z,0.0
2022-09-29T17:28:00.000Z,0.0
2022-09-29T17:30:00.000Z,0.0
2022-09-29T17:32:00.000Z,0.0
2022-09-29T17:34:00.000Z,0.0
2022-09-29T17:36:00.000Z,0.0
2022-09-29T17:38:00.000Z,0.0
2022-09-29T17:40:00.000Z,0.0
2022-09-29T17:42:00.000Z,0.0
2022-09-29T17:44:00.000Z,0.0
2022-09-29T17:46:00.000Z,0.0
2022-09-29T17:48:00.000Z,0.0
2022-09-29T17:50:00.000Z,0.0
2022-09-29T17:52:00.000Z,0.0
2022-09-29T17:54:00.000Z,0.0
2022-09-29T17:56:00.000Z,0.0
2022-09-29T17:58:00.000Z,0.0
2022-09-29T18:00:00.000Z,0.0
2022-09-29T18:02:00.000Z,0.0
2022-09-29T18:04:00.000Z,0.0
2022-09-29T18:06:00.000Z,0.0
2022-09-29T18:08:00.000Z,0.0
2022-09-29T18:10:00.000Z,0.0
2022-09-29T18:12:00.000Z,0.0
2022-09-29T18:14:00.000Z,0.0
2022-09-29T18:16:00.000Z,0.0
2022-09-29T18:18:00.000Z,0.0
2022-09-29T18:20:00.000Z,0.0
2022-09-29T18:22:00.000Z,0.0
2022-09-29T18:24:00.000Z,0.0
2022-09-29T18:26:00.000Z,0.0
2022-09-29T18:28:00.000Z,0.0
2022-09-29T18:30:00.000Z,0.0
2022-09-29T18:32:00.000Z,0.0
2022-09-29T18:34:00.000Z,0.0
2022-09-29T18:36:00.000Z,0.0
2022-09-29T18:38:00.000Z,0.0
2022-09-29T18:40:00.000Z,0.0
2022-09-29T18:42:00.000Z,0.0
2022-09-29T18:44:00.000Z,0.0
2022-09-29T18:46:00.000Z,0.0
2022-09-29T18:48:00.000Z,0.0
2022-09-29T18:50:00.000Z,0.0
2022-09-29T18:52:00.000Z,0.0
2022-09-29T18:54:00.000Z,0.0
2022-09-29T18:56:00.000Z,0.0
2022-09-29T18:58:00.000Z,0.0
2022-09-29T19:00:00.000Z,0.0
2022-09-29T19:02:00.000Z,0.0
2022-09-29T19:04:00.000Z,0.0
2022-09-29T19:06:00.000Z,0.0
2022-09-29T19:08:00.000Z,0.0
2022-09-29T19:10:00.000Z,0.0
2022-09-29T19:12:00.000Z,0.0
2022-09-29T19:14:00.000Z,0.0
2022-09-29T19:16:00.000Z,0.0
2022-09-29T19:18:00.000Z,0.0
2022-09-29T19:20:00.000Z,0.0
2022-09-29T19:22:00.000Z,0.0
2022-09-29T19:24:00.000Z,0.0
2022-09-29T19:26:00.000Z,0.0
2022-09-29T19:28:00.000Z,0.0
2022-09-29T19:30:00.000Z,0.0
2022-09-29T19:32:00.000Z,0.0
2022-09-29T19:34:00.000Z,0.0
2022-09-29T19:36:00.000Z,0.0
2022-09-29T19:38:00.000Z,0.0
2022-09-29T19:40:00.000Z,0.0
2022-09-29T19:42:00.000Z,0.0
2022-09-29T19:44:00.000Z,0.0
2022-09-29T19:46:00.000Z,0.0
2022-09-29T19:48:00.000Z,0.0
2022-09-29T19:50:00.000Z,0.0
2022-09-29T19:52:00.000Z,0.0
2022-09-29T19:54:00.000Z,0.0
2022-09-29T19:56:00.000Z,0.0
2022-09-29T19:58:00.000Z,0.0
2022-09-29T20:00:00.000Z,0.0
2022-09-29T20:02:00.000Z,0.0
2022-09-29T20:04:00.000Z,0.0
2022-09-29T20:06:00.000Z,0.0
2022-09-29T20:08:00.000Z,0.0
2022-09-29T20:10:00.000Z,0.0
2022-09-29T20:12:00.000Z,0.0
2022-09-29T20:14:00.000Z,0.0
2022-09-29T20:16:00.000Z,0.0
2022-09-29T20:18:00.000Z,0.0
2022-09-29T20:20:00.000Z,0.0
2022-09-29T20:22:00.000Z,0.0
2022-09-29T20:24:00.000Z,0.0
2022-09-29T20:26:00.000Z,0.0
2022-09-29T20:28:00.000Z,0.0
2022-09-29T20:30:00.000Z,0.0
2022-09-29T20:32:00.000Z,0.0
2022-09-29T20:34:00.000Z,0.0
2022-09-29T20:36:00.000Z,0.0
2022-09-29T20:38:00.000Z,0.0
2022-09-29T20:40:00.000Z,0.0
2022-09-29T20:42:00.000Z,0.0
2022-09-29T20:44:00.000Z,0.0
2022-09-29T20:46:00.000Z,0.0
2022-09-29T20:48:00.000Z,0.0
2022-09-29T20:50:00.000Z,0.0
2022-09-29T20:52:00.000Z,0.0
2022-09-29T20:54:00.000Z,0.0
2022-09-29T20:56:00.000Z,0.0
2022-09-29T20:58:00.000Z,0.0
2022-09-29T21:00:00.000Z,0.0
2022-09-29T21:02:00.000Z,0.0
2022-09-29T21:04:00.000Z,0.0
2022-09-29T21:06:00.000Z,0.0
2022-09-29T21:08:00.000Z,0.0
2022-09-29T21:10:00.000Z,0.0
2022-09-29T21:12:00.000Z,0.0
2022-09-29T21:14:00.000Z,0.0
2022-09-29T21:16:00.000Z,0.0
2022-09-29T21:18:00.000Z,0.0
2022-09-29T21:20:00.000Z,0.0
2022-09-29T21:22:00.000Z,0.0
2022-09-29T21:24:00.000Z,0.0
2022-09-29T21:26:00.000Z,0.0
2022-09-29T21:28:00.000Z,0.0
2022-09-29T21:30:00.000Z,0.0
2022-09-29T21:32:00.000Z,0.0
2022-09-29T21:34:00.000Z,0.0
2022-09-29T21:36:00.000Z,0.0
2022-09-29T21:38:00.000Z,0.0
2022-09-29T21:40:00.000Z,0.0
2022-09-29T21:42:00.000Z,0.0
2022-09-29T21:44:00.000Z,0.0
2022-09-29T21:46:00.000Z,0.0
2022-09-29T21:48:00.000Z,0.0
2022-09-29T21:50:00.000Z,0.0
2022-09-29T21:52:00.000Z,0.0
2022-09-29T21:54:00.000Z,0.0
2022-09-29T21:56:00.000Z,0.0
2022-09-29T21:58:00.000Z,0.0
2022-09-29T22:00:00.000Z,0.0
2022-09-29T22:02:00.000Z,0.0
2022-09-29T22:04:00.000Z,0.0
2022-09-29T22:06:00.000Z,0.0
2022-09-29T22:08:00.000Z,0.0
2022-09-29T22:10:00.000Z,0.0
2022-09-29T22:12:00.000Z,0.0
2022-09-29T22:14:00.000Z,0.0
2022-09-29T22:16:00.000Z,0.0
2022-09-29T22:18:00.000Z,0.0
2022-09-29T22:20:00.000Z,0.0
2022-09-29T22:22:00.000Z,0.0
2022-09-29T22:24:00.000Z,0.0
2022-09-29T22:26:00.000Z,0.0
2022-09-29T22:28:00.000Z,0.0
2022-09-29T22:30:00.000Z,0.0
2022-09-29T22:32:00.000Z,0.0
2022-09-29T22:34:00.000Z,0.0
2022-09-29T22:36:00.000Z,0.0
2022-09-29T22:38:00.000Z,0.0
2022-09-29T22:40:00.000Z,0.0
2022-09-29T22:42:00.000Z,0.0
2022-09-29T22:44:00.000Z,0.0
2022-09-29T22:46:00.000Z,0.0
2022-09-29T22:48:00.000Z,0.0
2022-09-29T22:50:00.000Z,0.0
2022-09-29T22:52:00.000Z,0.0
2022-09-29T22:54:00.000Z,0.0
2022-09-29T22:56:00.000Z,0.0
2022-09-29T22:58:00.000Z,0.0
2022-09-29T23:00:00.000Z,0.0
2022-09-29T23:02:00.000Z,0.0
2022-09-29T23:04:00.000Z,0.0
2022-09-29T23:06:00.000Z,0.0
2022-09-29T23:08:00.000Z,0.0
2022-09-29T23:10:00.000Z,0.0
2022-09-29T23:12:00.000Z,0.0
2022-09-29T23:14:00.000Z,0.0
2022-09-29T23:16:00.000Z,0.0
2022-09-29T23:18:00.000Z,0.0
2022-09-29T23:20:00.000Z,0.0
2022-09-29T23:22:00.000Z,0.0
2022-09-29T23:24:00.000Z,0.0
2022-09-29T23:26:00.000Z,0.0
2022-09-29T23:28:00.000Z,0.0
2022-09-29T23:30:00.000Z,0.0
2022-09-29T23:32:00.000Z,0.0
2022-09-29T23:34:00.000Z,0.0
2022-09-29T23:36:00.000Z,0.0
2022-09-29T23:38:00.000Z,0.0
2022-09-29T23:40:00.000Z,0.0
2022-09-29T23:42:00.000Z,0.0
2022-09-29T23:44:00.000Z,0.0
2022-09-29T23:46:00.000Z,0.0
2022-09-29T23:48:00.000Z,0.0
2022-09-29T23:50:00.000Z,0.0
2022-09-29T23:52:00.000Z,0.0
2022-09-29T23:54:00.000Z,0.0
2022-09-29T23:56:00.000Z,0.0
2022-09-29T23:58:00.000Z,0.0
